Time,TemperatureF,DewpointF,PressureIn,WindDirection,WindDirectionDegrees,WindSpeedMPH,WindSpeedGustMPH,Humidity,HourlyPrecipIn,Conditions,Clouds,dailyrainin,SoftwareType,DateUTC
2013-05-20 07:19:00,61.6,59.0,29.57,SE,135,1.0,7.0,91,0.00,,---,0.30,VWS V14.00,2013-05-20 12:19:00,
2013-05-20 07:20:00,61.7,59.0,29.57,North,5,1.0,1.0,91,0.00,,---,0.28,VWS V14.00,2013-05-20 12:20:00,
2013-05-20 07:25:00,62.1,59.1,29.57,SE,138,3.0,7.0,90,0.00,,---,0.28,VWS V14.00,2013-05-20 12:25:00,
2013-05-20 07:30:00,62.4,59.4,29.57,SE,134,0.0,7.0,90,0.00,,---,0.28,VWS V14.00,2013-05-20 12:30:00,
2013-05-20 07:35:00,62.5,59.2,29.58,South,178,0.0,7.0,89,0.00,,---,0.28,VWS V14.00,2013-05-20 12:35:00,
2013-05-20 07:40:00,62.6,59.3,29.58,East,91,2.0,7.0,89,0.00,,---,0.28,VWS V14.00,2013-05-20 12:40:00,
2013-05-20 07:45:00,62.8,59.2,29.58,ESE,118,0.0,14.0,88,0.00,,---,0.28,VWS V14.00,2013-05-20 12:45:00,
2013-05-20 07:50:00,62.9,59.3,29.59,NE,47,2.0,3.0,88,0.00,,---,0.28,VWS V14.00,2013-05-20 12:50:00,
2013-05-20 07:55:00,63.0,59.4,29.59,ESE,117,0.0,9.0,88,0.00,,---,0.28,VWS V14.00,2013-05-20 12:55:00,
2013-05-20 08:00:00,63.1,59.5,29.59,SE,138,3.0,11.0,88,0.00,,---,0.29,VWS V14.00,2013-05-20 13:00:00,
2013-05-20 08:05:00,63.2,59.3,29.59,SE,133,1.0,7.0,87,0.00,,---,0.29,VWS V14.00,2013-05-20 13:05:00,
2013-05-20 08:10:00,63.3,59.4,29.60,ENE,67,0.0,7.0,87,0.00,,---,0.29,VWS V14.00,2013-05-20 13:10:00,
2013-05-20 08:15:00,63.6,59.7,29.60,South,169,2.0,12.0,87,0.00,,---,0.29,VWS V14.00,2013-05-20 13:15:00,
2013-05-20 08:20:00,63.9,60.0,29.60,SSW,196,0.0,4.0,87,0.00,,---,0.29,VWS V14.00,2013-05-20 13:20:00,
2013-05-20 08:25:00,64.1,60.2,29.60,SSE,151,3.0,6.0,87,0.00,,---,0.29,VWS V14.00,2013-05-20 13:25:00,
2013-05-20 08:30:00,64.3,60.3,29.60,SSE,161,2.0,6.0,87,0.00,,---,0.29,VWS V14.00,2013-05-20 13:30:00,
2013-05-20 08:35:00,64.7,60.4,29.59,SE,145,1.0,20.0,86,0.00,,---,0.29,VWS V14.00,2013-05-20 13:35:00,
2013-05-20 08:41:00,65.0,60.0,29.59,SSE,159,4.0,20.0,84,0.00,,---,0.29,VWS V14.00,2013-05-20 13:41:00,
2013-05-20 08:46:00,65.3,60.3,29.59,SSE,149,4.0,20.0,84,0.00,,---,0.29,VWS V14.00,2013-05-20 13:46:00,
2013-05-20 08:51:00,65.6,60.3,29.60,SE,143,6.0,13.0,83,0.00,,---,0.30,VWS V14.00,2013-05-20 13:51:00,
2013-05-20 08:56:00,66.0,60.3,29.60,SSE,155,1.0,13.0,82,0.00,,---,0.30,VWS V14.00,2013-05-20 13:56:00,
2013-05-20 09:01:00,66.3,60.7,29.60,SE,127,1.0,13.0,82,0.00,,---,0.30,VWS V14.00,2013-05-20 14:01:00,
2013-05-20 09:06:00,66.5,60.5,29.60,SE,131,8.0,11.0,81,0.00,,---,0.30,VWS V14.00,2013-05-20 14:06:00,
2013-05-20 09:11:00,66.5,60.2,29.60,SE,138,4.0,12.0,80,0.00,,---,0.30,VWS V14.00,2013-05-20 14:11:00,
2013-05-20 09:16:00,66.3,60.0,29.60,SE,142,1.0,12.0,80,0.00,,---,0.30,VWS V14.00,2013-05-20 14:16:00,
2013-05-20 09:21:00,66.2,60.2,29.60,SE,134,3.0,13.0,81,0.00,,---,0.30,VWS V14.00,2013-05-20 14:21:00,
2013-05-20 09:26:00,66.2,60.5,29.59,SSW,207,5.0,13.0,82,0.00,,---,0.30,VWS V14.00,2013-05-20 14:26:00,
2013-05-20 09:31:00,66.1,60.1,29.59,SW,214,2.0,13.0,81,0.00,,---,0.30,VWS V14.00,2013-05-20 14:31:00,
2013-05-20 09:36:00,66.1,60.1,29.60,South,182,3.0,11.0,81,0.00,,---,0.30,VWS V14.00,2013-05-20 14:36:00,
2013-05-20 09:41:00,66.2,60.2,29.60,SSE,161,2.0,11.0,81,0.00,,---,0.30,VWS V14.00,2013-05-20 14:41:00,
2013-05-20 09:46:00,66.1,59.8,29.60,South,175,3.0,15.0,80,0.00,,---,0.30,VWS V14.00,2013-05-20 14:46:00,
2013-05-20 09:51:00,66.1,60.1,29.60,SSE,161,4.0,9.0,81,0.00,,---,0.30,VWS V14.00,2013-05-20 14:51:00,
2013-05-20 09:56:00,66.1,60.1,29.60,SSE,157,0.0,11.0,81,0.00,,---,0.30,VWS V14.00,2013-05-20 14:56:00,
2013-05-20 10:01:00,66.0,60.0,29.60,South,179,6.0,11.0,81,0.00,,---,0.31,VWS V14.00,2013-05-20 15:01:00,
2013-05-20 10:06:00,66.1,60.1,29.60,ESE,119,0.0,10.0,81,0.00,,---,0.31,VWS V14.00,2013-05-20 15:06:00,
2013-05-20 10:11:00,66.1,60.1,29.60,SE,136,1.0,10.0,81,0.00,,---,0.31,VWS V14.00,2013-05-20 15:11:00,
2013-05-20 10:16:00,66.1,60.5,29.60,SSE,159,4.0,10.0,82,0.00,,---,0.31,VWS V14.00,2013-05-20 15:16:00,
2013-05-20 10:21:00,66.2,60.2,29.60,SSE,159,4.0,6.0,81,0.00,,---,0.31,VWS V14.00,2013-05-20 15:21:00,
2013-05-20 10:26:00,66.3,60.3,29.59,South,171,0.0,6.0,81,0.00,,---,0.31,VWS V14.00,2013-05-20 15:26:00,
2013-05-20 10:31:00,66.4,60.7,29.59,South,184,1.0,11.0,82,0.00,,---,0.31,VWS V14.00,2013-05-20 15:31:00,
2013-05-20 10:36:00,66.7,60.7,29.59,South,169,3.0,7.0,81,0.00,,---,0.31,VWS V14.00,2013-05-20 15:36:00,
2013-05-20 10:41:00,66.9,60.5,29.59,SE,144,0.0,7.0,80,0.00,,---,0.31,VWS V14.00,2013-05-20 15:41:00,
2013-05-20 10:46:00,67.0,60.6,29.59,South,170,0.0,7.0,80,0.00,,---,0.31,VWS V14.00,2013-05-20 15:46:00,
2013-05-20 10:51:00,67.1,60.7,29.59,SSW,202,0.0,5.0,80,0.00,,---,0.31,VWS V14.00,2013-05-20 15:51:00,
2013-05-20 10:56:00,67.3,61.3,29.58,North,355,0.0,5.0,81,0.00,,---,0.31,VWS V14.00,2013-05-20 15:56:00,
2013-05-20 11:01:00,67.5,61.1,29.58,SSE,165,0.0,5.0,80,0.00,,---,0.31,VWS V14.00,2013-05-20 16:01:00,
2013-05-20 11:06:00,67.7,61.3,29.59,East,92,1.0,4.0,80,0.00,,---,0.31,VWS V14.00,2013-05-20 16:06:00,
2013-05-20 11:11:00,68.1,61.3,29.58,SSW,198,4.0,9.0,79,0.00,,---,0.31,VWS V14.00,2013-05-20 16:11:00,
2013-05-20 11:16:00,68.3,60.8,29.59,SSE,166,4.0,9.0,77,0.00,,---,0.31,VWS V14.00,2013-05-20 16:16:00,
2013-05-20 11:21:00,68.3,60.5,29.58,SSE,157,4.0,9.0,76,0.00,,---,0.31,VWS V14.00,2013-05-20 16:21:00,
2013-05-20 11:26:00,68.3,60.5,29.59,SSE,168,4.0,9.0,76,0.00,,---,0.31,VWS V14.00,2013-05-20 16:26:00,
2013-05-20 11:31:00,68.3,60.8,29.59,South,181,0.0,9.0,77,0.00,,---,0.31,VWS V14.00,2013-05-20 16:31:00,
2013-05-20 11:36:00,68.4,60.5,29.59,South,173,2.0,7.0,76,0.00,,---,0.31,VWS V14.00,2013-05-20 16:36:00,
2013-05-20 11:41:00,68.8,60.6,29.58,SSE,157,4.0,7.0,75,0.00,,---,0.31,VWS V14.00,2013-05-20 16:41:00,
2013-05-20 11:46:00,68.9,60.7,29.58,South,171,3.0,7.0,75,0.00,,---,0.31,VWS V14.00,2013-05-20 16:46:00,
2013-05-20 11:51:00,69.6,61.3,29.59,SE,135,0.0,11.0,75,0.00,,---,0.31,VWS V14.00,2013-05-20 16:51:00,
2013-05-20 11:56:00,70.3,60.9,29.58,SE,128,6.0,11.0,72,0.00,,---,0.31,VWS V14.00,2013-05-20 16:56:00,
2013-05-20 12:01:00,70.7,60.5,29.58,South,184,2.0,12.0,70,0.00,,---,0.31,VWS V14.00,2013-05-20 17:01:00,
2013-05-20 12:06:00,71.4,61.5,29.58,SSW,199,4.0,10.0,71,0.00,,---,0.31,VWS V14.00,2013-05-20 17:06:00,
2013-05-20 12:11:00,71.6,60.1,29.58,SSE,163,3.0,12.0,67,0.00,,---,0.31,VWS V14.00,2013-05-20 17:11:00,
2013-05-20 12:16:00,71.5,60.4,29.57,SSE,158,1.0,12.0,68,0.00,,---,0.31,VWS V14.00,2013-05-20 17:16:00,
2013-05-20 12:21:00,71.6,60.1,29.57,SSE,149,5.0,11.0,67,0.00,,---,0.31,VWS V14.00,2013-05-20 17:21:00,
2013-05-20 12:26:00,72.0,60.9,29.57,West,269,0.0,11.0,68,0.00,,---,0.31,VWS V14.00,2013-05-20 17:26:00,
2013-05-20 12:31:00,72.5,60.5,29.57,SSE,157,1.0,11.0,66,0.00,,---,0.31,VWS V14.00,2013-05-20 17:31:00,
2013-05-20 12:36:00,72.9,59.1,29.57,SE,138,4.0,19.0,62,0.00,,---,0.31,VWS V14.00,2013-05-20 17:36:00,
2013-05-20 12:41:00,72.8,58.6,29.57,South,188,4.0,20.0,61,0.00,,---,0.31,VWS V14.00,2013-05-20 17:41:00,
2013-05-20 12:46:00,72.9,60.0,29.57,East,99,2.0,20.0,64,0.00,,---,0.31,VWS V14.00,2013-05-20 17:46:00,
2013-05-20 12:51:00,72.9,60.0,29.57,SSE,168,4.0,15.0,64,0.00,,---,0.31,VWS V14.00,2013-05-20 17:51:00,
2013-05-20 12:56:00,72.8,59.9,29.57,SE,134,6.0,15.0,64,0.00,,---,0.32,VWS V14.00,2013-05-20 17:56:00,
2013-05-20 13:01:00,73.1,59.8,29.56,SE,126,10.0,15.0,63,0.00,,---,0.32,VWS V14.00,2013-05-20 18:01:00,
2013-05-20 13:06:00,73.1,59.8,29.56,South,169,7.0,11.0,63,0.00,,---,0.32,VWS V14.00,2013-05-20 18:06:00,
2013-05-20 13:11:00,73.6,60.7,29.56,ESE,119,3.0,12.0,64,0.00,,---,0.32,VWS V14.00,2013-05-20 18:11:00,
2013-05-20 13:16:00,73.8,60.0,29.56,South,187,5.0,12.0,62,0.00,,---,0.32,VWS V14.00,2013-05-20 18:16:00,
2013-05-20 13:21:00,73.6,60.2,29.56,SSE,153,3.0,5.0,63,0.00,,---,0.32,VWS V14.00,2013-05-20 18:21:00,
2013-05-20 13:26:00,73.7,59.9,29.56,South,174,1.0,10.0,62,0.00,,---,0.32,VWS V14.00,2013-05-20 18:26:00,
2013-05-20 13:31:00,74.0,59.7,29.55,NE,51,2.0,10.0,61,0.00,,---,0.32,VWS V14.00,2013-05-20 18:31:00,
2013-05-20 13:36:00,74.5,59.7,29.55,South,178,5.0,7.0,60,0.00,,---,0.32,VWS V14.00,2013-05-20 18:36:00,
2013-05-20 13:41:00,74.7,59.0,29.55,South,190,9.0,15.0,58,0.00,,---,0.32,VWS V14.00,2013-05-20 18:41:00,
2013-05-20 13:46:00,74.2,59.4,29.55,SSE,157,3.0,15.0,60,0.00,,---,0.32,VWS V14.00,2013-05-20 18:46:00,
2013-05-20 13:51:00,73.9,59.2,29.55,South,180,1.0,7.0,60,0.00,,---,0.32,VWS V14.00,2013-05-20 18:51:00,
2013-05-20 13:56:00,74.1,59.8,29.55,ESE,115,3.0,11.0,61,0.00,,---,0.32,VWS V14.00,2013-05-20 18:56:00,
2013-05-20 14:01:00,74.3,58.6,29.55,South,185,7.0,12.0,58,0.00,,---,0.32,VWS V14.00,2013-05-20 19:01:00,
2013-05-20 14:06:00,74.6,59.3,29.55,SE,142,6.0,9.0,59,0.00,,---,0.32,VWS V14.00,2013-05-20 19:06:00,
2013-05-20 14:11:00,75.0,59.7,29.56,SE,141,11.0,13.0,59,0.00,,---,0.32,VWS V14.00,2013-05-20 19:11:00,
2013-05-20 14:16:00,74.9,59.1,29.55,SE,146,2.0,13.0,58,0.00,,---,0.32,VWS V14.00,2013-05-20 19:16:00,
2013-05-20 14:21:00,75.0,58.3,29.56,East,100,2.0,14.0,56,0.00,,---,0.32,VWS V14.00,2013-05-20 19:21:00,
2013-05-20 14:26:00,75.0,58.8,29.55,NW,317,2.0,14.0,57,0.00,,---,0.32,VWS V14.00,2013-05-20 19:26:00,
2013-05-20 14:31:00,75.5,58.7,29.55,SSE,156,5.0,14.0,56,0.00,,---,0.32,VWS V14.00,2013-05-20 19:31:00,
2013-05-20 14:36:00,75.6,58.3,29.56,ESE,111,0.0,14.0,55,0.00,,---,0.32,VWS V14.00,2013-05-20 19:36:00,
2013-05-20 14:41:00,75.7,57.9,29.56,SE,126,6.0,14.0,54,0.00,,---,0.32,VWS V14.00,2013-05-20 19:41:00,
2013-05-20 14:46:00,75.2,57.9,29.56,SSE,155,11.0,14.0,55,0.00,,---,0.32,VWS V14.00,2013-05-20 19:46:00,
2013-05-20 14:51:00,75.0,57.8,29.56,SSW,200,12.0,14.0,55,0.00,,---,0.32,VWS V14.00,2013-05-20 19:51:00,
2013-05-20 14:56:00,75.1,58.3,29.56,SE,138,6.0,16.0,56,0.00,,---,0.32,VWS V14.00,2013-05-20 19:56:00,
2013-05-20 15:01:00,75.4,58.1,29.56,SSE,163,2.0,16.0,55,0.00,,---,0.32,VWS V14.00,2013-05-20 20:01:00,
2013-05-20 15:06:00,75.3,58.0,29.56,SE,130,4.0,9.0,55,0.00,,---,0.32,VWS V14.00,2013-05-20 20:06:00,
2013-05-20 15:11:00,75.2,56.9,29.56,SE,140,6.0,10.0,53,0.00,,---,0.32,VWS V14.00,2013-05-20 20:11:00,
2013-05-20 15:16:00,75.0,57.2,29.56,South,173,1.0,12.0,54,0.00,,---,0.32,VWS V14.00,2013-05-20 20:16:00,
2013-05-20 15:21:00,74.8,58.1,29.56,South,178,3.0,5.0,56,0.00,,---,0.32,VWS V14.00,2013-05-20 20:21:00,
2013-05-20 15:26:00,74.5,57.8,29.56,SSW,208,4.0,6.0,56,0.00,,---,0.32,VWS V14.00,2013-05-20 20:26:00,
2013-05-20 15:31:00,74.2,57.0,29.56,South,190,1.0,10.0,55,0.00,,---,0.32,VWS V14.00,2013-05-20 20:31:00,
2013-05-20 15:36:00,74.0,56.8,29.56,SSW,192,3.0,6.0,55,0.00,,---,0.32,VWS V14.00,2013-05-20 20:36:00,
2013-05-20 15:41:00,74.0,56.8,29.56,South,186,6.0,8.0,55,0.00,,---,0.32,VWS V14.00,2013-05-20 20:41:00,
2013-05-20 15:46:00,74.2,57.0,29.56,SE,141,0.0,9.0,55,0.00,,---,0.32,VWS V14.00,2013-05-20 20:46:00,
2013-05-20 15:51:00,74.4,57.2,29.56,SE,126,1.0,6.0,55,0.00,,---,0.32,VWS V14.00,2013-05-20 20:51:00,
2013-05-20 15:56:00,74.3,56.6,29.56,SSE,153,0.0,7.0,54,0.00,,---,0.32,VWS V14.00,2013-05-20 20:56:00,
2013-05-20 16:01:00,74.2,57.0,29.56,SW,218,3.0,10.0,55,0.00,,---,0.32,VWS V14.00,2013-05-20 21:01:00,
2013-05-20 16:06:00,74.2,56.5,29.56,SE,127,5.0,6.0,54,0.00,,---,0.32,VWS V14.00,2013-05-20 21:06:00,
2013-05-20 16:11:00,74.2,56.5,29.55,South,180,5.0,7.0,54,0.00,,---,0.32,VWS V14.00,2013-05-20 21:11:00,
2013-05-20 16:16:00,74.2,56.5,29.55,SSE,159,5.0,7.0,54,0.00,,---,0.32,VWS V14.00,2013-05-20 21:16:00,
2013-05-20 16:21:00,74.2,56.5,29.55,South,185,3.0,5.0,54,0.00,,---,0.32,VWS V14.00,2013-05-20 21:21:00,
2013-05-20 16:26:00,74.1,56.4,29.55,South,170,2.0,7.0,54,0.00,,---,0.32,VWS V14.00,2013-05-20 21:26:00,
2013-05-20 16:31:00,74.0,56.8,29.55,SSE,160,3.0,7.0,55,0.00,,---,0.32,VWS V14.00,2013-05-20 21:31:00,
2013-05-20 16:36:00,74.1,58.4,29.54,SSE,148,0.0,4.0,58,0.00,,---,0.32,VWS V14.00,2013-05-20 21:36:00,
2013-05-20 16:41:00,74.6,57.9,29.55,South,176,1.0,4.0,56,0.00,,---,0.32,VWS V14.00,2013-05-20 21:41:00,
2013-05-20 16:46:00,74.8,57.6,29.54,SSE,153,0.0,5.0,55,0.00,,---,0.32,VWS V14.00,2013-05-20 21:46:00,
2013-05-20 16:51:00,74.7,57.5,29.54,South,173,0.0,6.0,55,0.00,,---,0.32,VWS V14.00,2013-05-20 21:51:00,
2013-05-20 16:56:00,74.7,58.0,29.54,SSE,162,5.0,7.0,56,0.00,,---,0.32,VWS V14.00,2013-05-20 21:56:00,
2013-05-20 17:01:00,75.2,57.9,29.54,SE,126,2.0,11.0,55,0.00,,---,0.32,VWS V14.00,2013-05-20 22:01:00,
2013-05-20 17:06:00,75.7,57.4,29.54,SE,138,3.0,7.0,53,0.00,,---,0.32,VWS V14.00,2013-05-20 22:06:00,
2013-05-20 17:11:00,75.8,58.5,29.54,South,177,2.0,9.0,55,0.00,,---,0.32,VWS V14.00,2013-05-20 22:11:00,
2013-05-20 17:16:00,75.8,58.0,29.54,SSE,161,1.0,9.0,54,0.00,,---,0.32,VWS V14.00,2013-05-20 22:16:00,
2013-05-20 17:21:00,75.6,57.8,29.54,SSE,148,0.0,2.0,54,0.00,,---,0.32,VWS V14.00,2013-05-20 22:21:00,
2013-05-20 17:26:00,75.3,58.0,29.54,SSW,198,1.0,2.0,55,0.00,,---,0.32,VWS V14.00,2013-05-20 22:26:00,
2013-05-20 17:31:00,74.9,58.2,29.54,SW,216,0.0,3.0,56,0.00,,---,0.32,VWS V14.00,2013-05-20 22:31:00,
2013-05-20 17:36:00,74.5,57.8,29.53,South,180,0.0,3.0,56,0.00,,---,0.32,VWS V14.00,2013-05-20 22:36:00,
2013-05-20 17:41:00,74.2,57.5,29.54,SSE,164,1.0,7.0,56,0.00,,---,0.32,VWS V14.00,2013-05-20 22:41:00,
2013-05-20 17:46:00,74.2,58.5,29.54,SSE,165,3.0,7.0,58,0.00,,---,0.32,VWS V14.00,2013-05-20 22:46:00,
2013-05-20 17:51:00,74.2,57.5,29.55,SSE,147,2.0,7.0,56,0.00,,---,0.32,VWS V14.00,2013-05-20 22:51:00,
2013-05-20 17:56:00,74.1,56.9,29.54,South,182,9.0,10.0,55,0.00,,---,0.32,VWS V14.00,2013-05-20 22:56:00,
2013-05-20 18:01:00,74.0,57.3,29.54,SE,140,1.0,10.0,56,0.00,,---,0.32,VWS V14.00,2013-05-20 23:01:00,
2013-05-20 18:06:00,73.8,57.1,29.54,South,178,6.0,6.0,56,0.00,,---,0.32,VWS V14.00,2013-05-20 23:06:00,
2013-05-20 18:11:00,73.7,58.0,29.54,SSE,158,1.0,6.0,58,0.00,,---,0.32,VWS V14.00,2013-05-20 23:11:00,
2013-05-20 18:16:00,73.2,58.0,29.55,SSE,167,0.0,7.0,59,0.00,,---,0.32,VWS V14.00,2013-05-20 23:16:00,
2013-05-20 18:21:00,72.7,58.5,29.54,SSW,200,1.0,4.0,61,0.00,,---,0.32,VWS V14.00,2013-05-20 23:21:00,
2013-05-20 18:26:00,72.3,58.6,29.55,WSW,248,0.0,4.0,62,0.00,,---,0.32,VWS V14.00,2013-05-20 23:26:00,
2013-05-20 18:31:00,71.9,59.5,29.55,WSW,248,0.0,4.0,65,0.00,,---,0.32,VWS V14.00,2013-05-20 23:31:00,
2013-05-20 18:36:00,71.4,60.3,29.56,WSW,248,1.0,1.0,68,0.00,,---,0.32,VWS V14.00,2013-05-20 23:36:00,
2013-05-20 18:41:00,70.4,60.6,29.57,South,178,4.0,7.0,71,0.00,,---,0.32,VWS V14.00,2013-05-20 23:41:00,
2013-05-20 18:46:00,69.0,61.1,29.58,SE,130,9.0,12.0,76,0.00,,---,0.32,VWS V14.00,2013-05-20 23:46:00,
2013-05-20 18:51:00,67.1,60.7,29.57,SW,222,4.0,8.0,80,0.00,,---,0.32,VWS V14.00,2013-05-20 23:51:00,
2013-05-20 18:56:00,65.7,60.4,29.56,WSW,238,0.0,8.0,83,0.00,,---,0.32,VWS V14.00,2013-05-20 23:56:00,
2013-05-20 19:01:00,64.9,59.6,29.57,SSW,200,0.0,8.0,83,0.00,,---,0.32,VWS V14.00,2013-05-21 00:01:00,
2013-05-20 19:06:00,64.5,59.9,29.56,SW,232,0.0,1.0,85,0.00,,---,0.32,VWS V14.00,2013-05-21 00:06:00,
2013-05-20 19:11:00,64.4,60.5,29.57,SW,232,0.0,1.0,87,0.00,,---,0.32,VWS V14.00,2013-05-21 00:11:00,
2013-05-20 19:16:00,64.2,60.6,29.57,SW,232,0.0,1.0,88,0.00,,---,0.32,VWS V14.00,2013-05-21 00:16:00,
2013-05-20 19:21:00,63.8,60.5,29.57,SW,232,0.0,0.0,89,0.00,,---,0.32,VWS V14.00,2013-05-21 00:21:00,
2013-05-20 19:26:00,63.4,60.4,29.57,SW,232,0.0,0.0,90,0.00,,---,0.32,VWS V14.00,2013-05-21 00:26:00,
2013-05-20 19:31:00,63.3,60.6,29.57,SW,232,0.0,0.0,91,0.00,,---,0.32,VWS V14.00,2013-05-21 00:31:00,
2013-05-20 19:36:00,63.1,60.7,29.58,SW,232,0.0,0.0,92,0.00,,---,0.32,VWS V14.00,2013-05-21 00:36:00,
2013-05-20 19:41:00,62.9,60.8,29.58,SW,232,0.0,0.0,93,0.00,,---,0.32,VWS V14.00,2013-05-21 00:41:00,
2013-05-20 19:46:00,62.8,61.0,29.58,SW,232,0.0,0.0,94,0.00,,---,0.32,VWS V14.00,2013-05-21 00:46:00,
2013-05-20 19:51:00,62.8,61.3,29.58,SW,232,0.0,0.0,95,0.00,,---,0.32,VWS V14.00,2013-05-21 00:51:00,
2013-05-20 19:56:00,62.8,61.3,29.58,SW,232,0.0,0.0,95,0.00,,---,0.32,VWS V14.00,2013-05-21 00:56:00,
2013-05-20 20:01:00,62.8,61.3,29.58,SW,232,0.0,0.0,95,0.00,,---,0.32,VWS V14.00,2013-05-21 01:01:00,
2013-05-20 20:06:00,62.8,61.3,29.58,SW,232,0.0,0.0,95,0.00,,---,0.32,VWS V14.00,2013-05-21 01:06:00,
2013-05-20 20:11:00,62.8,61.7,29.59,SW,232,0.0,0.0,96,0.00,,---,0.32,VWS V14.00,2013-05-21 01:11:00,
2013-05-20 20:16:00,62.8,61.7,29.59,SW,232,0.0,0.0,96,0.00,,---,0.32,VWS V14.00,2013-05-21 01:16:00,
2013-05-20 20:21:00,62.8,61.7,29.59,SW,232,0.0,0.0,96,0.00,,---,0.32,VWS V14.00,2013-05-21 01:21:00,
2013-05-20 20:26:00,62.7,61.5,29.59,SW,232,0.0,3.0,96,0.00,,---,0.32,VWS V14.00,2013-05-21 01:26:00,
2013-05-20 20:31:00,62.6,61.5,29.59,WNW,289,1.0,3.0,96,0.00,,---,0.32,VWS V14.00,2013-05-21 01:31:00,
2013-05-20 20:36:00,62.4,61.2,29.59,WNW,289,0.0,0.0,96,0.00,,---,0.32,VWS V14.00,2013-05-21 01:36:00,
2013-05-20 20:41:00,62.2,61.0,29.59,WNW,289,0.0,0.0,96,0.00,,---,0.32,VWS V14.00,2013-05-21 01:41:00,
2013-05-20 20:46:00,62.1,61.0,29.59,WNW,289,0.0,0.0,96,0.00,,---,0.32,VWS V14.00,2013-05-21 01:46:00,
2013-05-20 20:51:00,61.9,60.8,29.59,WNW,289,0.0,0.0,96,0.00,,---,0.32,VWS V14.00,2013-05-21 01:51:00,
2013-05-20 20:56:00,61.7,60.5,29.60,WNW,289,0.0,0.0,96,0.00,,---,0.32,VWS V14.00,2013-05-21 01:56:00,
2013-05-20 21:01:00,61.5,60.1,29.60,WNW,289,0.0,0.0,95,0.00,,---,0.32,VWS V14.00,2013-05-21 02:01:00,
2013-05-20 21:06:00,61.3,59.9,29.61,WNW,289,0.0,0.0,95,0.00,,---,0.32,VWS V14.00,2013-05-21 02:06:00,
2013-05-20 21:11:00,61.1,60.0,29.60,WNW,289,0.0,0.0,96,0.00,,---,0.32,VWS V14.00,2013-05-21 02:11:00,
2013-05-20 21:16:00,60.9,59.8,29.61,WNW,289,0.0,0.0,96,0.00,,---,0.32,VWS V14.00,2013-05-21 02:16:00,
2013-05-20 21:21:00,60.7,59.3,29.61,WNW,289,0.0,0.0,95,0.00,,---,0.32,VWS V14.00,2013-05-21 02:21:00,
2013-05-20 21:26:00,60.6,59.5,29.61,WNW,289,0.0,0.0,96,0.00,,---,0.32,VWS V14.00,2013-05-21 02:26:00,
2013-05-20 21:31:00,60.4,59.3,29.61,WNW,289,0.0,0.0,96,0.00,,---,0.32,VWS V14.00,2013-05-21 02:31:00,
2013-05-20 21:36:00,60.2,59.1,29.61,WNW,289,0.0,0.0,96,0.00,,---,0.32,VWS V14.00,2013-05-21 02:36:00,
2013-05-20 21:41:00,60.0,58.9,29.61,WNW,289,0.0,0.0,96,0.00,,---,0.32,VWS V14.00,2013-05-21 02:41:00,
2013-05-20 21:46:00,59.9,58.8,29.61,WNW,289,0.0,0.0,96,0.00,,---,0.32,VWS V14.00,2013-05-21 02:46:00,
2013-05-20 21:51:00,59.7,58.6,29.61,WNW,289,0.0,0.0,96,0.00,,---,0.32,VWS V14.00,2013-05-21 02:51:00,
2013-05-20 21:56:00,59.6,58.5,29.61,WNW,289,0.0,0.0,96,0.00,,---,0.32,VWS V14.00,2013-05-21 02:56:00,
2013-05-20 22:01:00,59.4,58.3,29.61,WNW,289,0.0,0.0,96,0.00,,---,0.32,VWS V14.00,2013-05-21 03:01:00,
2013-05-20 22:06:00,59.3,58.2,29.61,WNW,289,0.0,0.0,96,0.00,,---,0.32,VWS V14.00,2013-05-21 03:06:00,
2013-05-20 22:11:00,59.1,58.0,29.61,WNW,289,0.0,0.0,96,0.00,,---,0.32,VWS V14.00,2013-05-21 03:11:00,
2013-05-20 22:16:00,59.0,57.9,29.61,WNW,289,0.0,0.0,96,0.00,,---,0.32,VWS V14.00,2013-05-21 03:16:00,
2013-05-20 22:21:00,58.7,57.6,29.61,WNW,289,0.0,0.0,96,0.00,,---,0.32,VWS V14.00,2013-05-21 03:21:00,
2013-05-20 22:26:00,58.5,57.4,29.61,WNW,289,0.0,0.0,96,0.00,,---,0.32,VWS V14.00,2013-05-21 03:26:00,
2013-05-20 22:31:00,58.3,57.2,29.61,WNW,289,0.0,0.0,96,0.00,,---,0.32,VWS V14.00,2013-05-21 03:31:00,
2013-05-20 22:36:00,58.1,57.0,29.61,WNW,289,0.0,0.0,96,0.00,,---,0.32,VWS V14.00,2013-05-21 03:36:00,
2013-05-20 22:41:00,58.0,57.2,29.61,WNW,289,0.0,0.0,97,0.00,,---,0.32,VWS V14.00,2013-05-21 03:41:00,
2013-05-20 22:46:00,57.8,57.0,29.61,WNW,289,0.0,0.0,97,0.00,,---,0.32,VWS V14.00,2013-05-21 03:46:00,
2013-05-20 22:51:00,57.7,56.9,29.61,WNW,289,0.0,0.0,97,0.00,,---,0.32,VWS V14.00,2013-05-21 03:51:00,
2013-05-20 22:56:00,57.6,56.8,29.61,WNW,289,0.0,0.0,97,0.00,,---,0.32,VWS V14.00,2013-05-21 03:56:00,
2013-05-20 23:01:00,57.5,56.7,29.61,NW,307,0.0,2.0,97,0.00,,---,0.32,VWS V14.00,2013-05-21 04:01:00,
2013-05-20 23:06:00,57.5,56.7,29.61,NW,307,0.0,0.0,97,0.00,,---,0.32,VWS V14.00,2013-05-21 04:06:00,
2013-05-20 23:11:00,57.3,56.5,29.61,NW,307,0.0,0.0,97,0.00,,---,0.32,VWS V14.00,2013-05-21 04:11:00,
2013-05-20 23:16:00,57.1,56.0,29.61,NW,307,0.0,0.0,96,0.00,,---,0.33,VWS V14.00,2013-05-21 04:16:00,
2013-05-20 23:21:00,56.9,56.1,29.61,NW,307,0.0,0.0,97,0.00,,---,0.33,VWS V14.00,2013-05-21 04:21:00,
2013-05-20 23:26:00,56.8,56.0,29.61,NW,307,0.0,0.0,97,0.00,,---,0.33,VWS V14.00,2013-05-21 04:26:00,
2013-05-20 23:31:00,56.7,55.9,29.60,NW,307,0.0,0.0,97,0.00,,---,0.33,VWS V14.00,2013-05-21 04:31:00,
2013-05-20 23:36:00,56.5,55.7,29.60,NW,307,0.0,0.0,97,0.00,,---,0.33,VWS V14.00,2013-05-21 04:36:00,
2013-05-20 23:41:00,56.3,55.5,29.60,NW,307,0.0,0.0,97,0.00,,---,0.33,VWS V14.00,2013-05-21 04:41:00,
2013-05-20 23:46:00,56.2,55.4,29.60,NW,307,0.0,0.0,97,0.00,,---,0.33,VWS V14.00,2013-05-21 04:46:00,
2013-05-20 23:51:00,56.1,55.3,29.60,NW,307,0.0,0.0,97,0.00,,---,0.33,VWS V14.00,2013-05-21 04:51:00,
2013-05-20 23:56:00,56.0,55.2,29.60,NW,307,0.0,0.0,97,0.00,,---,0.33,VWS V14.00,2013-05-21 04:56:00,